createdAt,value
2022-11-12T00:00:43.342Z,6.5
2022-11-12T00:01:49.653Z,6.5
2022-11-12T00:02:55.881Z,6.5
2022-11-12T00:04:02.149Z,6.5
2022-11-12T00:05:08.423Z,6.5
2022-11-12T00:06:14.691Z,6.4
2022-11-12T00:07:20.975Z,6.5
2022-11-12T00:08:26.255Z,6.5
2022-11-12T00:09:32.543Z,6.5
2022-11-12T00:10:38.825Z,6.5
2022-11-12T00:11:45.127Z,6.5
2022-11-12T00:12:51.342Z,6.5
2022-11-12T00:13:57.625Z,6.5
2022-11-12T00:15:03.890Z,6.5
2022-11-12T00:16:10.263Z,6.5
2022-11-12T00:17:16.475Z,6.5
2022-11-12T00:18:22.695Z,6.5
2022-11-12T00:19:28.975Z,6.6
2022-11-12T00:20:35.247Z,6.5
2022-11-12T00:21:41.554Z,6.5
2022-11-12T00:22:46.833Z,6.6
2022-11-12T00:23:53.127Z,6.5
2022-11-12T00:24:59.350Z,6.5
2022-11-12T00:26:05.636Z,6.4
2022-11-12T00:27:11.899Z,6.4
2022-11-12T00:28:18.165Z,6.4
2022-11-12T00:29:24.446Z,6.3
2022-11-12T00:30:30.709Z,6.2
2022-11-12T00:31:36.985Z,6.2
2022-11-12T00:32:42.280Z,6.2
2022-11-12T00:33:47.578Z,6.1
2022-11-12T00:34:52.875Z,6.1
2022-11-12T00:35:58.167Z,6.1
2022-11-12T00:37:04.450Z,6.1
2022-11-12T00:38:10.703Z,6.1
2022-11-12T00:39:16.975Z,6.1
2022-11-12T00:40:23.247Z,6.1
2022-11-12T00:41:29.516Z,6.1
2022-11-12T00:42:35.799Z,6.1
2022-11-12T00:43:42.127Z,6.1
2022-11-12T00:44:48.335Z,6.1
2022-11-12T00:45:54.656Z,6
2022-11-12T00:47:00.881Z,6
2022-11-12T00:48:07.153Z,6
2022-11-12T00:49:13.444Z,6
2022-11-12T00:50:18.742Z,6
2022-11-12T00:51:24.984Z,6
2022-11-12T00:52:31.262Z,6
2022-11-12T00:53:37.527Z,6
2022-11-12T00:54:43.801Z,6
2022-11-12T00:55:50.076Z,6
2022-11-12T00:56:56.346Z,5.9
2022-11-12T00:58:02.616Z,6
2022-11-12T00:59:08.896Z,6
2022-11-12T01:00:15.181Z,6
2022-11-12T01:01:21.428Z,6
2022-11-12T01:02:27.698Z,6
2022-11-12T01:03:33.977Z,6
2022-11-12T01:04:39.278Z,6
2022-11-12T01:05:45.591Z,6
2022-11-12T01:06:51.811Z,6
2022-11-12T01:07:58.082Z,6
2022-11-12T01:09:03.383Z,6
2022-11-12T01:10:08.664Z,6
2022-11-12T01:11:14.948Z,6
2022-11-12T01:12:21.218Z,5.9
2022-11-12T01:13:26.521Z,5.9
2022-11-12T01:14:31.817Z,5.9
2022-11-12T01:15:38.088Z,5.8
2022-11-12T01:16:44.338Z,5.8
2022-11-12T01:17:50.616Z,5.8
2022-11-12T01:18:56.888Z,5.8
2022-11-12T01:20:03.165Z,5.7
2022-11-12T01:21:09.433Z,5.7
2022-11-12T01:22:15.712Z,5.8
2022-11-12T01:23:21.977Z,5.8
2022-11-12T01:24:28.254Z,5.8
2022-11-12T01:25:34.516Z,5.9
2022-11-12T01:26:39.911Z,5.9
2022-11-12T01:27:46.090Z,5.9
2022-11-12T01:28:52.350Z,5.9
2022-11-12T01:29:58.665Z,5.9
2022-11-12T01:31:04.903Z,5.9
2022-11-12T01:32:11.222Z,5.9
2022-11-12T01:33:17.445Z,5.9
2022-11-12T01:34:23.717Z,5.9
2022-11-12T01:35:29.987Z,5.8
2022-11-12T01:36:36.261Z,5.8
2022-11-12T01:37:42.529Z,5.8
2022-11-12T01:38:48.833Z,5.8
2022-11-12T01:39:55.085Z,5.7
2022-11-12T01:41:00.368Z,5.7
2022-11-12T01:42:06.640Z,5.7
2022-11-12T01:43:12.930Z,5.8
2022-11-12T01:44:19.207Z,5.7
2022-11-12T01:45:25.457Z,5.7
2022-11-12T01:46:31.768Z,5.7
2022-11-12T01:47:38.013Z,5.6
2022-11-12T01:48:44.274Z,5.6
2022-11-12T01:49:50.536Z,5.7
2022-11-12T01:50:56.812Z,5.7
2022-11-12T01:52:03.116Z,5.7
2022-11-12T01:53:09.388Z,5.7
2022-11-12T01:54:15.631Z,5.6
2022-11-12T01:55:20.958Z,5.6
2022-11-12T01:56:27.194Z,5.6
2022-11-12T01:57:33.475Z,5.6
2022-11-12T01:58:39.747Z,5.7
2022-11-12T01:59:46.034Z,5.7
2022-11-12T02:00:52.295Z,5.6
2022-11-12T02:01:58.596Z,5.6
2022-11-12T02:03:04.835Z,5.7
2022-11-12T02:04:11.096Z,5.6
2022-11-12T02:05:17.445Z,5.6
2022-11-12T02:06:23.703Z,5.5
2022-11-12T02:07:29.920Z,5.5
2022-11-12T02:08:36.191Z,5.4
2022-11-12T02:09:41.480Z,5.4
2022-11-12T02:10:47.751Z,5.4
2022-11-12T02:11:54.025Z,5.4
2022-11-12T02:13:00.288Z,5.4
2022-11-12T02:14:06.557Z,5.4
2022-11-12T02:15:12.859Z,5.5
2022-11-12T02:16:19.102Z,5.5
2022-11-12T02:17:25.388Z,5.5
2022-11-12T02:18:31.642Z,5.5
2022-11-12T02:19:37.922Z,5.5
2022-11-12T02:20:44.240Z,5.5
2022-11-12T02:21:50.492Z,5.5
2022-11-12T02:22:56.744Z,5.5
2022-11-12T02:24:02.030Z,5.5
2022-11-12T02:25:08.306Z,5.5
2022-11-12T02:26:14.569Z,5.5
2022-11-12T02:27:20.849Z,5.6
2022-11-12T02:28:27.130Z,5.6
2022-11-12T02:29:33.387Z,5.6
2022-11-12T02:30:39.661Z,5.6
2022-11-12T02:31:45.939Z,5.6
2022-11-12T02:32:52.210Z,5.5
2022-11-12T02:33:58.482Z,5.6
2022-11-12T02:35:04.744Z,5.5
2022-11-12T02:36:11.064Z,5.6
2022-11-12T02:37:17.325Z,5.6
2022-11-12T02:38:22.592Z,5.6
2022-11-12T02:39:28.941Z,5.5
2022-11-12T02:40:35.117Z,5.6
2022-11-12T02:41:41.403Z,5.6
2022-11-12T02:42:47.673Z,5.6
2022-11-12T02:43:53.942Z,5.5
2022-11-12T02:45:00.229Z,5.5
2022-11-12T02:46:06.491Z,5.5
2022-11-12T02:47:12.773Z,5.5
2022-11-12T02:48:19.022Z,5.5
2022-11-12T02:49:25.363Z,5.5
2022-11-12T02:50:31.574Z,5.5
2022-11-12T02:51:37.845Z,5.5
2022-11-12T02:52:43.164Z,5.5
2022-11-12T02:53:49.411Z,5.5
2022-11-12T02:54:55.689Z,5.5
2022-11-12T02:56:01.974Z,5.5
2022-11-12T02:57:08.225Z,5.5
2022-11-12T02:58:14.496Z,5.5
2022-11-12T02:59:20.771Z,5.5
2022-11-12T03:00:27.048Z,5.5
2022-11-12T03:01:33.323Z,5.5
2022-11-12T03:02:39.596Z,5.5
2022-11-12T03:03:45.855Z,5.5
2022-11-12T03:04:52.130Z,5.5
2022-11-12T03:05:58.479Z,5.5
2022-11-12T03:07:03.697Z,5.5
2022-11-12T03:08:09.983Z,5.4
2022-11-12T03:09:16.259Z,5.4
2022-11-12T03:10:22.526Z,5.4
2022-11-12T03:11:28.778Z,5.4
2022-11-12T03:12:35.114Z,5.4
2022-11-12T03:13:41.360Z,5.4
2022-11-12T03:14:47.595Z,5.3
2022-11-12T03:15:53.934Z,5.3
2022-11-12T03:17:00.144Z,5.3
2022-11-12T03:18:06.416Z,5.3
2022-11-12T03:19:12.693Z,5.3
2022-11-12T03:20:18.960Z,5.3
2022-11-12T03:21:24.251Z,5.3
2022-11-12T03:22:30.517Z,5.3
2022-11-12T03:23:36.786Z,5.3
2022-11-12T03:24:43.063Z,5.3
2022-11-12T03:25:49.336Z,5.2
2022-11-12T03:26:54.656Z,5.2
2022-11-12T03:27:59.916Z,5.2
2022-11-12T03:29:06.258Z,5.2
2022-11-12T03:30:12.462Z,5.2
2022-11-12T03:31:17.774Z,5.2
2022-11-12T03:32:23.061Z,5.2
2022-11-12T03:33:29.346Z,5.2
2022-11-12T03:34:35.592Z,5.2
2022-11-12T03:35:41.884Z,5.2
2022-11-12T03:36:48.148Z,5.1
2022-11-12T03:37:54.417Z,5.1
2022-11-12T03:39:00.686Z,5.1
2022-11-12T03:40:06.966Z,5.1
2022-11-12T03:41:13.232Z,5.1
2022-11-12T03:42:19.541Z,5.1
2022-11-12T03:43:25.778Z,4.9
2022-11-12T03:44:32.046Z,4.9
2022-11-12T03:45:38.319Z,4.8
2022-11-12T03:46:43.624Z,4.8
2022-11-12T03:47:49.887Z,4.9
2022-11-12T03:48:56.153Z,4.9
2022-11-12T03:50:02.417Z,4.9
2022-11-12T03:51:08.698Z,4.9
2022-11-12T03:52:14.972Z,4.9
2022-11-12T03:53:21.265Z,4.8
2022-11-12T03:54:27.517Z,4.8
2022-11-12T03:55:33.795Z,4.8
2022-11-12T03:56:40.055Z,4.8
2022-11-12T03:57:46.323Z,4.8
2022-11-12T03:58:52.598Z,4.8
2022-11-12T03:59:58.885Z,4.8
2022-11-12T04:01:04.167Z,4.9
2022-11-12T04:02:10.437Z,4.9
2022-11-12T04:03:16.706Z,4.9
2022-11-12T04:04:22.984Z,4.9
2022-11-12T04:05:29.248Z,4.9
2022-11-12T04:06:35.518Z,4.9
2022-11-12T04:07:41.802Z,4.8
2022-11-12T04:08:48.068Z,4.8
2022-11-12T04:09:54.374Z,4.8
2022-11-12T04:11:00.663Z,4.8
2022-11-12T04:12:06.904Z,4.8
2022-11-12T04:13:13.158Z,4.9
2022-11-12T04:14:19.439Z,4.9
2022-11-12T04:15:24.717Z,4.9
2022-11-12T04:16:30.992Z,4.9
2022-11-12T04:17:37.265Z,4.9
2022-11-12T04:18:43.534Z,4.9
2022-11-12T04:19:49.796Z,4.9
2022-11-12T04:20:56.076Z,5
2022-11-12T04:22:02.350Z,5
2022-11-12T04:23:08.617Z,5
2022-11-12T04:24:14.902Z,5
2022-11-12T04:25:21.165Z,5
2022-11-12T04:26:27.438Z,5
2022-11-12T04:27:33.712Z,5
2022-11-12T04:28:39.992Z,5.1
2022-11-12T04:29:45.303Z,5.1
2022-11-12T04:30:51.537Z,5.1
2022-11-12T04:31:56.845Z,5.1
2022-11-12T04:33:02.128Z,5.1
2022-11-12T04:34:07.432Z,5.1
2022-11-12T04:35:12.715Z,5.1
2022-11-12T04:36:19.006Z,5.1
2022-11-12T04:37:25.271Z,5.1
2022-11-12T04:38:31.535Z,5.1
2022-11-12T04:39:37.807Z,5
2022-11-12T04:40:44.093Z,5
2022-11-12T04:41:50.355Z,5
2022-11-12T04:42:56.624Z,5
2022-11-12T04:44:02.899Z,5
2022-11-12T04:45:09.164Z,5
2022-11-12T04:46:15.472Z,5.1
2022-11-12T04:47:21.722Z,5.1
2022-11-12T04:48:27.985Z,5.1
2022-11-12T04:49:33.323Z,5.2
2022-11-12T04:50:39.544Z,5.2
2022-11-12T04:51:45.820Z,5.2
2022-11-12T04:52:52.099Z,5.2
2022-11-12T04:53:58.364Z,5.3
2022-11-12T04:55:04.633Z,5.3
2022-11-12T04:56:10.903Z,5.3
2022-11-12T04:57:16.216Z,5.3
2022-11-12T04:58:21.522Z,5.3
2022-11-12T04:59:27.782Z,5.2
2022-11-12T05:00:33.066Z,5.2
2022-11-12T05:01:38.413Z,5.2
2022-11-12T05:02:44.629Z,5.2
2022-11-12T05:03:50.968Z,5.2
2022-11-12T05:04:57.175Z,5.2
2022-11-12T05:06:03.495Z,5.2
2022-11-12T05:07:09.715Z,5.2
2022-11-12T05:08:15.010Z,5.2
2022-11-12T05:09:21.284Z,5.2
2022-11-12T05:10:27.554Z,5.2
2022-11-12T05:11:33.825Z,5.2
2022-11-12T05:12:40.102Z,5.2
2022-11-12T05:13:46.376Z,5.2
2022-11-12T05:14:52.650Z,5.2
2022-11-12T05:15:58.956Z,5.2
2022-11-12T05:17:05.217Z,5.2
2022-11-12T05:18:11.467Z,5.2
2022-11-12T05:19:17.731Z,5.2
2022-11-12T05:20:24.051Z,5.2
2022-11-12T05:21:30.308Z,5.2
2022-11-12T05:22:35.567Z,5.2
2022-11-12T05:23:41.835Z,5.2
2022-11-12T05:24:48.107Z,5.2
2022-11-12T05:25:54.400Z,5.2
2022-11-12T05:27:00.652Z,5.2
2022-11-12T05:28:06.919Z,5.2
2022-11-12T05:29:13.197Z,5.2
2022-11-12T05:30:19.481Z,5.2
2022-11-12T05:31:25.745Z,5.2
2022-11-12T05:32:32.060Z,5.2
2022-11-12T05:33:38.302Z,5.2
2022-11-12T05:34:44.581Z,5.3
2022-11-12T05:35:50.829Z,5.2
2022-11-12T05:36:56.196Z,5.2
2022-11-12T05:38:02.443Z,5.2
2022-11-12T05:39:08.688Z,5.3
2022-11-12T05:40:14.971Z,5.3
2022-11-12T05:41:21.206Z,5.3
2022-11-12T05:42:27.501Z,5.3
2022-11-12T05:43:33.756Z,5.3
2022-11-12T05:44:40.076Z,5.3
2022-11-12T05:45:46.298Z,5.3
2022-11-12T05:46:52.568Z,5.3
2022-11-12T05:47:58.841Z,5.3
2022-11-12T05:49:05.171Z,5.3
2022-11-12T05:50:11.393Z,5.3
2022-11-12T05:51:16.678Z,5.3
2022-11-12T05:52:22.954Z,5.3
2022-11-12T05:53:29.216Z,5.4
2022-11-12T05:54:35.490Z,5.4
2022-11-12T05:55:41.883Z,5.3
2022-11-12T05:56:48.165Z,5.3
2022-11-12T05:57:54.425Z,5.3
2022-11-12T05:59:00.700Z,5.3
2022-11-12T06:00:06.967Z,5.3
2022-11-12T06:01:13.247Z,5.3
2022-11-12T06:02:19.529Z,5.4
2022-11-12T06:03:25.787Z,5.4
2022-11-12T06:04:32.055Z,5.3
2022-11-12T06:05:37.348Z,5.3
2022-11-12T06:06:43.632Z,5.3
2022-11-12T06:07:49.886Z,5.3
2022-11-12T06:08:56.166Z,5.3
2022-11-12T06:10:02.511Z,5.3
2022-11-12T06:11:08.712Z,5.3
2022-11-12T06:12:14.978Z,5.3
2022-11-12T06:13:21.247Z,5.3
2022-11-12T06:14:27.523Z,5.3
2022-11-12T06:15:33.801Z,5.2
2022-11-12T06:16:40.109Z,5.2
2022-11-12T06:17:46.335Z,5.3
2022-11-12T06:18:52.611Z,5.3
2022-11-12T06:19:57.951Z,5.3
2022-11-12T06:21:04.177Z,5.3
2022-11-12T06:22:10.457Z,5.3
2022-11-12T06:23:16.717Z,5.3
2022-11-12T06:24:22.989Z,5.3
2022-11-12T06:25:29.281Z,5.3
2022-11-12T06:26:35.540Z,5.3
2022-11-12T06:27:41.804Z,5.3
2022-11-12T06:28:48.132Z,5.2
2022-11-12T06:29:54.357Z,5.2
2022-11-12T06:31:00.625Z,5.2
2022-11-12T06:32:06.886Z,5.2
2022-11-12T06:33:13.187Z,5.2
2022-11-12T06:34:18.539Z,5.2
2022-11-12T06:35:24.727Z,5.2
2022-11-12T06:36:30.034Z,5.2
2022-11-12T06:37:35.322Z,5.3
2022-11-12T06:38:41.632Z,5.3
2022-11-12T06:39:47.917Z,5.3
2022-11-12T06:40:53.152Z,5.3
2022-11-12T06:41:58.570Z,5.3
2022-11-12T06:43:04.713Z,5.3
2022-11-12T06:44:11.046Z,5.3
2022-11-12T06:45:17.263Z,5.3
2022-11-12T06:46:23.530Z,5.3
2022-11-12T06:47:29.801Z,5.3
2022-11-12T06:48:36.076Z,5.3
2022-11-12T06:49:42.348Z,5.3
2022-11-12T06:50:48.631Z,5.3
2022-11-12T06:51:54.939Z,5.3
2022-11-12T06:53:01.219Z,5.2
2022-11-12T06:54:07.447Z,5.2
2022-11-12T06:55:13.716Z,5.1
2022-11-12T06:56:19.001Z,5.2
2022-11-12T06:57:25.263Z,5.2
2022-11-12T06:58:31.611Z,5.2
2022-11-12T06:59:37.822Z,5.2
2022-11-12T07:00:44.190Z,5.3
2022-11-12T07:01:50.361Z,5.3
2022-11-12T07:02:56.734Z,5.3
2022-11-12T07:04:01.933Z,5.3
2022-11-12T07:05:07.222Z,5.3
2022-11-12T07:06:13.521Z,5.3
2022-11-12T07:07:19.766Z,5.4
2022-11-12T07:08:26.041Z,5.3
2022-11-12T07:09:32.309Z,5.3
2022-11-12T07:10:38.642Z,5.3
2022-11-12T07:11:44.901Z,5.4
2022-11-12T07:12:51.120Z,5.4
2022-11-12T07:13:57.400Z,5.4
2022-11-12T07:15:03.676Z,5.4
2022-11-12T07:16:10.017Z,5.4
2022-11-12T07:17:16.210Z,5.4
2022-11-12T07:18:22.541Z,5.4
2022-11-12T07:19:27.782Z,5.4
2022-11-12T07:20:34.071Z,5.4
2022-11-12T07:21:40.320Z,5.3
2022-11-12T07:22:46.629Z,5.3
2022-11-12T07:23:52.868Z,5.3
2022-11-12T07:24:59.139Z,5.3
2022-11-12T07:26:05.441Z,5.3
2022-11-12T07:27:10.708Z,5.3
2022-11-12T07:28:15.994Z,5.3
2022-11-12T07:29:21.300Z,5.3
2022-11-12T07:30:26.589Z,5.3
2022-11-12T07:31:31.888Z,5.3
2022-11-12T07:32:37.174Z,5.3
2022-11-12T07:33:43.449Z,5.3
2022-11-12T07:34:49.712Z,5.3
2022-11-12T07:35:55.984Z,5.4
2022-11-12T07:37:02.255Z,5.4
2022-11-12T07:38:08.523Z,5.4
2022-11-12T07:39:14.801Z,5.3
2022-11-12T07:40:21.072Z,5.3
2022-11-12T07:41:27.349Z,5.2
2022-11-12T07:42:33.619Z,5.2
2022-11-12T07:43:39.892Z,5.2
2022-11-12T07:44:46.165Z,5.2
2022-11-12T07:45:52.434Z,5.2
2022-11-12T07:46:57.722Z,5.2
2022-11-12T07:48:04.003Z,5.3
2022-11-12T07:49:10.273Z,5.3
2022-11-12T07:50:16.567Z,5.3
2022-11-12T07:51:22.809Z,5.4
2022-11-12T07:52:29.082Z,5.4
2022-11-12T07:53:35.364Z,5.3
2022-11-12T07:54:40.646Z,5.3
2022-11-12T07:55:45.943Z,5.3
2022-11-12T07:56:51.247Z,5.3
2022-11-12T07:57:56.529Z,5.3
2022-11-12T07:59:02.798Z,5.3
2022-11-12T08:00:09.073Z,5.3
2022-11-12T08:01:15.352Z,5.3
2022-11-12T08:02:21.685Z,5.3
2022-11-12T08:03:27.966Z,5.3
2022-11-12T08:04:34.256Z,5.2
2022-11-12T08:05:40.472Z,5.2
2022-11-12T08:06:46.706Z,5.2
2022-11-12T08:07:52.977Z,5.2
2022-11-12T08:08:59.276Z,5.1
2022-11-12T08:10:05.547Z,5.1
2022-11-12T08:11:11.807Z,5.1
2022-11-12T08:12:17.085Z,5.1
2022-11-12T08:13:23.364Z,5.2
2022-11-12T08:14:29.651Z,5.2
2022-11-12T08:15:35.918Z,5.2
2022-11-12T08:16:42.193Z,5.2
2022-11-12T08:17:48.457Z,5.2
2022-11-12T08:18:54.723Z,5.2
2022-11-12T08:20:00.018Z,5.2
2022-11-12T08:22:11.579Z,5.2
2022-11-12T08:23:17.852Z,5.1
2022-11-12T08:24:23.175Z,5.1
2022-11-12T08:25:28.430Z,5.1
2022-11-12T08:26:34.711Z,5.2
2022-11-12T08:27:40.989Z,5.1
2022-11-12T08:28:47.252Z,5.1
2022-11-12T08:29:53.522Z,5.1
2022-11-12T08:30:59.794Z,5.1
2022-11-12T08:32:06.062Z,5.1
2022-11-12T08:33:12.334Z,5.1
2022-11-12T08:34:18.606Z,5.2
2022-11-12T08:35:24.880Z,5.2
2022-11-12T08:36:31.166Z,5.3
2022-11-12T08:37:37.419Z,5.3
2022-11-12T08:38:43.716Z,5.3
2022-11-12T08:39:48.987Z,5.4
2022-11-12T08:40:55.266Z,5.4
2022-11-12T08:42:01.532Z,5.4
2022-11-12T08:43:07.810Z,5.3
2022-11-12T08:44:14.135Z,5.4
2022-11-12T08:45:20.348Z,5.4
2022-11-12T08:46:26.624Z,5.3
2022-11-12T08:47:31.923Z,5.3
2022-11-12T08:48:37.207Z,5.3
2022-11-12T08:49:42.506Z,5.4
2022-11-12T08:50:48.777Z,5.4
2022-11-12T08:51:54.082Z,5.4
2022-11-12T08:52:59.360Z,5.5
2022-11-12T08:54:05.678Z,5.5
2022-11-12T08:55:11.902Z,5.5
2022-11-12T08:56:18.180Z,5.4
2022-11-12T08:57:24.451Z,5.3
2022-11-12T08:58:30.731Z,5.2
2022-11-12T08:59:36.996Z,5.1
2022-11-12T09:00:43.318Z,5.1
2022-11-12T09:01:49.551Z,5.1
2022-11-12T09:02:55.810Z,5.2
2022-11-12T09:04:02.176Z,5.2
2022-11-12T09:05:08.358Z,5.2
2022-11-12T09:06:14.706Z,5.3
2022-11-12T09:07:19.914Z,5.3
2022-11-12T09:08:26.189Z,5.3
2022-11-12T09:09:32.467Z,5.4
2022-11-12T09:10:38.735Z,5.4
2022-11-12T09:11:45.001Z,5.4
2022-11-12T09:12:51.274Z,5.4
2022-11-12T09:13:57.591Z,5.3
2022-11-12T09:15:03.829Z,5.3
2022-11-12T09:16:10.098Z,5.3
2022-11-12T09:17:16.365Z,5.2
2022-11-12T09:18:22.654Z,5.3
2022-11-12T09:19:28.916Z,5.3
2022-11-12T09:20:35.182Z,5.2
2022-11-12T09:21:40.474Z,5.3
2022-11-12T09:22:46.747Z,5.3
2022-11-12T09:23:53.025Z,5.3
2022-11-12T09:24:59.293Z,5.3
2022-11-12T09:26:05.567Z,5.3
2022-11-12T09:27:11.837Z,5.3
2022-11-12T09:28:18.172Z,5.3
2022-11-12T09:29:24.379Z,5.3
2022-11-12T09:30:30.650Z,5.3
2022-11-12T09:31:36.931Z,5.3
2022-11-12T09:32:43.231Z,5.4
2022-11-12T09:33:49.577Z,5.5
2022-11-12T09:34:55.731Z,5.5
2022-11-12T09:36:01.031Z,5.5
2022-11-12T09:37:07.301Z,5.5
2022-11-12T09:38:13.572Z,5.6
2022-11-12T09:39:19.844Z,5.6
2022-11-12T09:40:26.114Z,5.6
2022-11-12T09:41:32.398Z,5.7
2022-11-12T09:42:38.659Z,5.7
2022-11-12T09:43:43.963Z,5.6
2022-11-12T09:44:49.244Z,5.6
2022-11-12T09:45:55.519Z,5.6
2022-11-12T09:47:01.794Z,5.6
2022-11-12T09:48:07.094Z,5.6
2022-11-12T09:49:12.380Z,5.6
2022-11-12T09:50:18.741Z,5.6
2022-11-12T09:51:24.916Z,5.6
2022-11-12T09:52:31.192Z,5.6
2022-11-12T09:53:37.470Z,5.7
2022-11-12T09:54:43.740Z,5.7
2022-11-12T09:55:50.037Z,5.7
2022-11-12T09:56:56.285Z,5.8
2022-11-12T09:58:02.555Z,5.8
2022-11-12T09:59:08.823Z,5.9
2022-11-12T10:00:15.096Z,5.9
2022-11-12T10:01:21.367Z,6
2022-11-12T10:02:27.643Z,6
2022-11-12T10:03:32.927Z,6
2022-11-12T10:04:39.218Z,5.9
2022-11-12T10:05:45.532Z,5.9
2022-11-12T10:06:51.751Z,5.9
2022-11-12T10:07:58.021Z,5.9
2022-11-12T10:09:04.292Z,6
2022-11-12T10:10:10.568Z,6
2022-11-12T10:11:16.831Z,6
2022-11-12T10:12:23.110Z,6
2022-11-12T10:13:28.492Z,6
2022-11-12T10:14:33.702Z,6
2022-11-12T10:15:40.001Z,5.9
2022-11-12T10:16:46.250Z,5.9
2022-11-12T10:17:52.512Z,5.9
2022-11-12T10:18:57.812Z,5.9
2022-11-12T10:20:03.100Z,6
2022-11-12T10:21:09.369Z,6
2022-11-12T10:22:15.642Z,6
2022-11-12T10:23:21.914Z,6.1
2022-11-12T10:24:28.215Z,6.1
2022-11-12T10:25:34.466Z,6.2
2022-11-12T10:26:40.730Z,6.2
2022-11-12T10:27:47.006Z,6.2
2022-11-12T10:28:53.280Z,6.2
2022-11-12T10:29:59.548Z,6.2
2022-11-12T10:31:05.825Z,6.2
2022-11-12T10:32:12.094Z,6.2
2022-11-12T10:33:18.396Z,6.2
2022-11-12T10:34:23.654Z,6.2
2022-11-12T10:35:29.918Z,6.3
2022-11-12T10:36:36.196Z,6.3
2022-11-12T10:37:42.467Z,6.3
2022-11-12T10:38:48.736Z,6.3
2022-11-12T10:39:55.034Z,6.2
2022-11-12T10:41:01.291Z,6.2
2022-11-12T10:42:06.595Z,6.2
2022-11-12T10:43:11.872Z,6.2
2022-11-12T10:44:17.173Z,6.1
2022-11-12T10:45:22.459Z,6
2022-11-12T10:46:28.736Z,6
2022-11-12T10:47:35.003Z,5.9
2022-11-12T10:48:41.268Z,5.9
2022-11-12T10:49:47.544Z,5.9
2022-11-12T10:50:53.838Z,6
2022-11-12T10:52:00.094Z,6
2022-11-12T10:53:06.365Z,6
2022-11-12T10:54:12.640Z,6.1
2022-11-12T10:55:18.910Z,6.1
2022-11-12T10:56:25.190Z,6.2
2022-11-12T10:57:31.448Z,6.2
2022-11-12T10:58:37.730Z,6.3
2022-11-12T10:59:43.009Z,6.3
2022-11-12T11:00:49.287Z,6.3
2022-11-12T11:01:55.552Z,6.3
2022-11-12T11:03:01.827Z,6.3
2022-11-12T11:04:08.099Z,6.3
2022-11-12T11:05:14.374Z,6.3
2022-11-12T11:06:20.647Z,6.3
2022-11-12T11:07:25.939Z,6.3
2022-11-12T11:08:31.235Z,6.3
2022-11-12T11:09:37.529Z,6.3
2022-11-12T11:10:42.822Z,6.3
2022-11-12T11:11:48.093Z,6.3
2022-11-12T11:12:54.385Z,6.3
2022-11-12T11:14:00.632Z,6.3
2022-11-12T11:15:06.912Z,6.4
2022-11-12T11:16:13.218Z,6.4
2022-11-12T11:17:19.516Z,6.5
2022-11-12T11:18:25.725Z,6.5
2022-11-12T11:19:31.996Z,6.5
2022-11-12T11:20:38.273Z,6.5
2022-11-12T11:21:44.539Z,6.6
2022-11-12T11:22:50.815Z,6.6
2022-11-12T11:23:57.082Z,6.6
2022-11-12T11:25:03.360Z,6.5
2022-11-12T11:26:08.641Z,6.5
2022-11-12T11:27:14.924Z,6.6
2022-11-12T11:28:21.195Z,6.6
2022-11-12T11:29:27.459Z,6.6
2022-11-12T11:30:33.736Z,6.7
2022-11-12T11:31:40.009Z,6.8
2022-11-12T11:32:46.280Z,6.8
2022-11-12T11:33:52.549Z,6.8
2022-11-12T11:34:58.818Z,6.9
2022-11-12T11:36:05.164Z,6.9
2022-11-12T11:37:11.369Z,7
2022-11-12T11:38:17.646Z,7
2022-11-12T11:39:23.909Z,7.1
2022-11-12T11:40:29.229Z,7.1
2022-11-12T11:41:35.528Z,7.1
2022-11-12T11:42:41.753Z,7.1
2022-11-12T11:43:48.018Z,6.9
2022-11-12T11:44:54.296Z,6.9
2022-11-12T11:46:00.568Z,6.8
2022-11-12T11:47:06.831Z,6.8
2022-11-12T11:48:13.093Z,6.7
2022-11-12T11:49:19.387Z,6.7
2022-11-12T11:50:25.646Z,6.6
2022-11-12T11:51:31.919Z,6.6
2022-11-12T11:52:38.194Z,6.6
2022-11-12T11:53:44.516Z,6.6
2022-11-12T11:54:49.847Z,6.6
2022-11-12T11:55:56.043Z,6.7
2022-11-12T11:57:02.315Z,6.7
2022-11-12T11:58:08.575Z,6.8
2022-11-12T11:59:14.843Z,6.9
2022-11-12T12:00:20.140Z,6.9
2022-11-12T12:01:25.430Z,6.8
2022-11-12T12:02:30.732Z,6.8
2022-11-12T12:03:37.006Z,6.8
2022-11-12T12:04:42.290Z,6.7
2022-11-12T12:05:48.557Z,6.7
2022-11-12T12:06:54.837Z,6.7
2022-11-12T12:08:01.100Z,6.8
2022-11-12T12:09:07.378Z,6.8
2022-11-12T12:10:13.652Z,6.8
2022-11-12T12:11:19.940Z,6.9
2022-11-12T12:12:26.192Z,6.9
2022-11-12T12:13:32.482Z,7
2022-11-12T12:14:38.750Z,7
2022-11-12T12:15:45.032Z,7
2022-11-12T12:16:51.279Z,7.1
2022-11-12T12:17:57.555Z,7.1
2022-11-12T12:19:02.844Z,7.1
2022-11-12T12:20:09.180Z,7.2
2022-11-12T12:21:15.388Z,7.2
2022-11-12T12:22:21.666Z,7.2
2022-11-12T12:23:27.964Z,7.2
2022-11-12T12:24:34.202Z,7.2
2022-11-12T12:25:40.482Z,7.2
2022-11-12T12:26:46.741Z,7.2
2022-11-12T12:27:53.020Z,7.3
2022-11-12T12:28:59.288Z,7.3
2022-11-12T12:30:05.558Z,7.3
2022-11-12T12:31:10.931Z,7.3
2022-11-12T12:32:17.206Z,7.4
2022-11-12T12:33:23.396Z,7.4
2022-11-12T12:34:29.678Z,7.4
2022-11-12T12:35:35.944Z,7.4
2022-11-12T12:36:42.279Z,7.4
2022-11-12T12:37:48.529Z,7.4
2022-11-12T12:38:54.764Z,7.5
2022-11-12T12:40:01.033Z,7.5
2022-11-12T12:41:07.332Z,7.5
2022-11-12T12:42:13.578Z,7.5
2022-11-12T12:43:18.883Z,7.5
2022-11-12T12:44:24.179Z,7.5
2022-11-12T12:45:30.474Z,7.5
2022-11-12T12:46:36.714Z,7.5
2022-11-12T12:47:42.075Z,7.5
2022-11-12T12:48:47.324Z,7.5
2022-11-12T12:49:53.640Z,7.5
2022-11-12T12:50:59.850Z,7.5
2022-11-12T12:52:06.113Z,7.5
2022-11-12T12:53:12.393Z,7.5
2022-11-12T12:54:18.650Z,7.5
2022-11-12T12:55:24.931Z,7.6
2022-11-12T12:56:31.229Z,7.6
2022-11-12T12:57:37.477Z,7.6
2022-11-12T12:58:43.777Z,7.6
2022-11-12T12:59:50.034Z,7.6
2022-11-12T13:00:56.316Z,7.6
2022-11-12T13:02:02.576Z,7.6
2022-11-12T13:03:07.861Z,7.6
2022-11-12T13:04:14.131Z,7.7
2022-11-12T13:05:20.404Z,7.7
2022-11-12T13:06:26.678Z,7.7
2022-11-12T13:07:32.941Z,7.7
2022-11-12T13:08:39.212Z,7.7
2022-11-12T13:09:45.512Z,7.7
2022-11-12T13:10:51.780Z,7.7
2022-11-12T13:11:58.026Z,7.7
2022-11-12T13:13:04.304Z,7.7
2022-11-12T13:14:10.582Z,7.7
2022-11-12T13:15:16.846Z,7.7
2022-11-12T13:16:23.177Z,7.8
2022-11-12T13:17:28.409Z,7.8
2022-11-12T13:18:34.679Z,7.8
2022-11-12T13:19:40.957Z,7.8
2022-11-12T13:20:47.223Z,7.8
2022-11-12T13:21:53.492Z,7.8
2022-11-12T13:22:59.884Z,7.8
2022-11-12T13:24:06.050Z,7.8
2022-11-12T13:25:12.309Z,7.7
2022-11-12T13:26:18.580Z,7.6
2022-11-12T13:27:24.938Z,7.6
2022-11-12T13:28:31.128Z,7.6
2022-11-12T13:29:37.397Z,7.6
2022-11-12T13:30:43.675Z,7.6
2022-11-12T13:31:49.003Z,7.6
2022-11-12T13:32:55.250Z,7.6
2022-11-12T13:34:01.504Z,7.6
2022-11-12T13:35:07.774Z,7.6
2022-11-12T13:36:14.050Z,7.6
2022-11-12T13:37:20.319Z,7.7
2022-11-12T13:38:26.591Z,7.7
2022-11-12T13:39:32.922Z,7.7
2022-11-12T13:40:39.145Z,7.7
2022-11-12T13:41:45.433Z,7.7
2022-11-12T13:42:51.730Z,7.7
2022-11-12T13:43:57.997Z,7.7
2022-11-12T13:45:04.226Z,7.7
2022-11-12T13:46:09.514Z,7.7
2022-11-12T13:47:15.787Z,7.7
2022-11-12T13:48:22.058Z,7.7
2022-11-12T13:49:27.360Z,7.7
2022-11-12T13:50:32.639Z,7.7
2022-11-12T13:51:37.960Z,7.7
2022-11-12T13:52:43.245Z,7.7
2022-11-12T13:53:49.524Z,7.7
2022-11-12T13:54:55.780Z,7.7
2022-11-12T13:56:02.119Z,7.7
2022-11-12T13:57:08.322Z,7.7
2022-11-12T13:58:14.592Z,7.6
2022-11-12T13:59:20.895Z,7.6
2022-11-12T14:00:27.129Z,7.6
2022-11-12T14:01:33.413Z,7.7
2022-11-12T14:02:39.693Z,7.6
2022-11-12T14:03:45.964Z,7.6
2022-11-12T14:04:52.227Z,7.6
2022-11-12T14:05:58.549Z,7.6
2022-11-12T14:07:03.868Z,7.6
2022-11-12T14:08:10.052Z,7.6
2022-11-12T14:09:16.331Z,7.6
2022-11-12T14:10:22.605Z,7.6
2022-11-12T14:11:28.899Z,7.5
2022-11-12T14:12:35.149Z,7.5
2022-11-12T14:13:41.511Z,7.5
2022-11-12T14:14:46.721Z,7.5
2022-11-12T14:15:52.050Z,7.5
2022-11-12T14:16:57.338Z,7.5
2022-11-12T14:18:02.625Z,7.5
2022-11-12T14:19:08.891Z,7.5
2022-11-12T14:20:15.132Z,7.5
2022-11-12T14:21:21.413Z,7.5
2022-11-12T14:22:27.684Z,7.5
2022-11-12T14:23:33.974Z,7.5
2022-11-12T14:24:40.229Z,7.5
2022-11-12T14:25:46.493Z,7.5
2022-11-12T14:26:52.812Z,7.5
2022-11-12T14:27:59.090Z,7.5
2022-11-12T14:29:05.321Z,7.5
2022-11-12T14:30:11.631Z,7.5
2022-11-12T14:31:17.857Z,7.4
2022-11-12T14:32:23.153Z,7.4
2022-11-12T14:33:29.521Z,7.5
2022-11-12T14:34:35.694Z,7.4
2022-11-12T14:35:41.966Z,7.4
2022-11-12T14:36:48.245Z,7.4
2022-11-12T14:37:54.513Z,7.4
2022-11-12T14:39:00.804Z,7.4
2022-11-12T14:40:07.070Z,7.4
2022-11-12T14:41:13.333Z,7.4
2022-11-12T14:42:19.610Z,7.4
2022-11-12T14:43:25.866Z,7.4
2022-11-12T14:44:32.148Z,7.3
2022-11-12T14:45:38.412Z,7.4
2022-11-12T14:46:43.701Z,7.4
2022-11-12T14:47:49.986Z,7.4
2022-11-12T14:48:56.252Z,7.3
2022-11-12T14:50:02.519Z,7.4
2022-11-12T14:51:08.812Z,7.4
2022-11-12T14:52:15.063Z,7.3
2022-11-12T14:53:21.388Z,7.3
2022-11-12T14:54:27.602Z,7.3
2022-11-12T14:55:33.880Z,7.3
2022-11-12T14:56:40.187Z,7.3
2022-11-12T14:58:52.718Z,7.3
2022-11-12T14:59:59.008Z,7.3
2022-11-12T15:01:04.251Z,7.3
2022-11-12T15:02:10.527Z,7.3
2022-11-12T15:03:16.822Z,7.3
2022-11-12T15:04:23.071Z,7.3
2022-11-12T15:05:29.369Z,7.3
2022-11-12T15:06:35.731Z,7.2
2022-11-12T15:07:41.909Z,7.3
2022-11-12T15:08:48.154Z,7.2
2022-11-12T15:09:54.443Z,7.2
2022-11-12T15:11:00.730Z,7.2
2022-11-12T15:12:06.979Z,7.2
2022-11-12T15:13:13.249Z,7.2
2022-11-12T15:14:19.520Z,7.2
2022-11-12T15:15:24.821Z,7.2
2022-11-12T15:16:31.089Z,7.2
2022-11-12T15:17:37.356Z,7.2